Terminal Aerodrome Forecast
Issued by NWS Pueblo, CO

Home | Current Version | Previous Version | Text Only | Print | Product List | Glossary On
Versions: 1 2 3 4 5 6 7 8 9 10 11 12 13 14 15
000
FTUS45 KPUB 222327
TAFALS
TAF
KALS 222327Z 2300/2324 15009KT P6SM VCTS SCT100CB BKN150
     FM230100 VRB04KT P6SM SCT120
     FM232100 26007KT P6SM SCT120=

USA.gov is the U.S. government's official web portal to all federal, state and local government web resources and services.